Time;durP1;ratioP1;P1;durP2;ratioP2;P2;SDS_P1;SDS_P2;PMS_P1;PMS_P2;Temp;Humidity;BMP_temperature;BMP_pressure;BME280_temperature;BME280_humidity;BME280_pressure;Samples;Min_cycle;Max_cycle;Signal;HPM_P1;HPM_P2
2022/03/12 00:00:34;;;;;;;11.15;3.45;;;4.00;86.10;;;;;;5046342;28;20060;-74
2022/03/12 00:03:00;;;;;;;10.23;3.80;;;3.90;85.90;;;;;;5028473;28;20026;-72
2022/03/12 00:05:29;;;;;;;14.90;4.53;;;3.90;86.20;;;;;;5046530;28;20116;-74
2022/03/12 00:07:54;;;;;;;10.95;3.10;;;3.90;86.30;;;;;;5028390;28;20038;-72
2022/03/12 00:10:22;;;;;;;10.23;4.00;;;3.80;86.40;;;;;;5028273;28;20022;-71
2022/03/12 00:12:48;;;;;;;10.13;3.75;;;3.80;86.60;;;;;;5046234;28;20076;-74
2022/03/12 00:15:14;;;;;;;9.35;3.42;;;3.80;86.60;;;;;;5027684;28;20063;-73
2022/03/12 00:17:45;;;;;;;9.98;3.47;;;3.70;87.00;;;;;;5028293;28;20033;-74
2022/03/12 00:20:16;;;;;;;7.35;2.90;;;3.70;86.80;;;;;;5046083;28;20045;-74
2022/03/12 00:22:47;;;;;;;8.35;3.53;;;3.70;86.80;;;;;;5045743;28;20481;-73
2022/03/12 00:25:14;;;;;;;7.03;2.92;;;3.70;87.20;;;;;;5028351;28;20021;-72
2022/03/12 00:27:42;;;;;;;9.18;3.45;;;3.60;86.90;;;;;;5045479;28;20076;-73
2022/03/12 00:30:10;;;;;;;6.97;3.08;;;3.60;87.10;;;;;;5027828;28;20029;-72
2022/03/12 00:32:37;;;;;;;8.77;3.63;;;3.60;87.60;;;;;;5045903;28;20048;-72
2022/03/12 00:35:08;;;;;;;8.23;2.92;;;3.60;87.60;;;;;;5045495;28;20112;-72
2022/03/12 00:37:34;;;;;;;9.88;3.60;;;3.50;87.60;;;;;;5027957;28;20083;-74
2022/03/12 00:40:00;;;;;;;6.38;2.75;;;3.50;87.70;;;;;;5027908;28;20432;-73
2022/03/12 00:42:27;;;;;;;18.85;3.78;;;3.50;88.30;;;;;;5027520;28;20029;-75
2022/03/12 00:44:53;;;;;;;8.55;3.42;;;3.40;88.00;;;;;;5023795;28;20075;-75
2022/03/12 00:47:18;;;;;;;6.22;2.92;;;3.40;87.90;;;;;;5025913;28;20065;-75
2022/03/12 00:49:45;;;;;;;11.57;3.50;;;3.40;88.10;;;;;;5025429;28;20038;-73
2022/03/12 00:52:12;;;;;;;23.10;3.33;;;3.40;87.20;;;;;;5024389;28;20022;-73
2022/03/12 00:54:37;;;;;;;6.60;3.20;;;3.40;87.40;;;;;;5025523;28;20462;-74
2022/03/12 00:57:03;;;;;;;11.50;3.80;;;3.40;87.30;;;;;;5025359;28;20030;-74
2022/03/12 00:59:29;;;;;;;9.70;3.35;;;3.40;87.30;;;;;;5025863;28;20082;-75
2022/03/12 01:01:54;;;;;;;11.63;3.00;;;3.30;87.80;;;;;;5025433;28;20056;-73
2022/03/12 01:04:20;;;;;;;3.95;2.03;;;3.30;87.30;;;;;;5025432;28;20080;-74
2022/03/12 01:06:46;;;;;;;10.82;3.47;;;3.30;87.30;;;;;;5025252;28;20050;-72
2022/03/12 01:09:12;;;;;;;8.45;3.03;;;3.30;87.60;;;;;;5025389;28;20105;-73
2022/03/12 01:11:39;;;;;;;9.43;3.22;;;3.30;87.30;;;;;;5025276;28;20532;-75
2022/03/12 01:14:06;;;;;;;5.45;3.20;;;3.30;87.60;;;;;;5025368;28;20168;-74
2022/03/12 01:16:33;;;;;;;9.13;3.47;;;3.30;87.80;;;;;;5025021;28;20022;-73
2022/03/12 01:18:59;;;;;;;13.38;3.20;;;3.20;87.60;;;;;;5023321;28;20094;-73
2022/03/12 01:21:25;;;;;;;9.82;3.95;;;3.20;87.70;;;;;;5024066;28;20014;-73
2022/03/12 01:23:51;;;;;;;9.32;3.53;;;3.20;87.80;;;;;;5023817;28;20474;-72
2022/03/12 01:26:19;;;;;;;10.95;3.10;;;3.20;87.50;;;;;;5024420;28;20065;-74
2022/03/12 01:28:45;;;;;;;6.47;3.25;;;3.10;87.60;;;;;;5024774;28;20021;-73
2022/03/12 01:31:12;;;;;;;8.35;3.03;;;3.10;87.20;;;;;;5025052;28;20057;-73
2022/03/12 01:33:38;;;;;;;7.65;3.38;;;3.10;87.20;;;;;;5024060;28;20631;-73
2022/03/12 01:36:05;;;;;;;8.95;3.72;;;3.10;87.60;;;;;;5025116;28;20022;-72
2022/03/12 01:38:34;;;;;;;3.38;1.55;;;3.10;87.50;;;;;;5024859;28;20022;-72
2022/03/12 01:41:05;;;;;;;7.47;2.85;;;3.10;87.50;;;;;;5025224;28;20033;-74
2022/03/12 01:43:34;;;;;;;7.22;3.05;;;3.00;87.10;;;;;;5025766;28;20048;-76
2022/03/12 01:46:03;;;;;;;11.88;3.70;;;3.00;87.40;;;;;;5042051;28;20056;-73
2022/03/12 01:48:30;;;;;;;14.48;2.85;;;3.00;87.50;;;;;;5045153;28;20041;-72
2022/03/12 01:50:57;;;;;;;7.05;3.17;;;3.00;87.30;;;;;;5044718;28;20032;-75
2022/03/12 01:53:26;;;;;;;10.52;2.90;;;3.00;87.30;;;;;;5027135;28;20030;-72
2022/03/12 01:55:54;;;;;;;9.27;3.45;;;3.00;87.20;;;;;;5027282;28;20402;-72
2022/03/12 01:58:20;;;;;;;8.07;3.30;;;3.00;87.60;;;;;;5044607;28;20085;-73
2022/03/12 02:00:51;;;;;;;8.07;3.05;;;3.00;87.50;;;;;;5044655;28;20071;-72
2022/03/12 02:03:28;;;;;;;12.55;3.97;;;3.00;87.10;;;;;;5044667;28;20022;-72
2022/03/12 02:05:55;;;;;;;10.13;3.03;;;3.00;87.70;;;;;;5044542;28;20033;-73
2022/03/12 02:08:21;;;;;;;11.75;3.10;;;2.90;87.40;;;;;;5026735;28;20037;-74
2022/03/12 02:10:49;;;;;;;9.23;3.63;;;2.90;87.20;;;;;;5026800;28;20032;-74
2022/03/12 02:13:16;;;;;;;6.97;3.05;;;2.90;87.60;;;;;;5044056;28;20233;-73
2022/03/12 02:15:42;;;;;;;8.27;3.72;;;2.90;87.90;;;;;;5044382;28;20028;-72
2022/03/12 02:18:08;;;;;;;9.35;3.30;;;2.90;87.90;;;;;;5044793;28;20029;-72
2022/03/12 02:20:34;;;;;;;7.55;2.70;;;2.90;88.00;;;;;;5044433;28;20021;-73
2022/03/12 02:23:03;;;;;;;24.48;3.47;;;2.90;88.30;;;;;;5026905;28;20032;-73
2022/03/12 02:25:31;;;;;;;8.88;3.65;;;2.80;88.40;;;;;;5044418;28;20036;-72
2022/03/12 02:27:59;;;;;;;10.57;3.67;;;2.80;88.10;;;;;;5026397;28;20128;-72
2022/03/12 02:30:42;;;;;;;7.85;3.17;;;2.80;87.90;;;;;;5045941;28;20022;-73
2022/03/12 02:33:08;;;;;;;9.82;2.63;;;2.70;88.40;;;;;;5047844;28;20021;-72
2022/03/12 02:35:35;;;;;;;10.25;3.35;;;2.70;88.30;;;;;;5048288;28;20045;-73
2022/03/12 02:38:07;;;;;;;6.40;2.33;;;2.70;88.00;;;;;;5048098;28;20048;-72
2022/03/12 02:40:34;;;;;;;5.68;2.72;;;2.70;88.00;;;;;;5047732;28;20052;-72
2022/03/12 02:43:01;;;;;;;8.40;2.78;;;2.70;88.20;;;;;;5030348;28;20092;-72
2022/03/12 02:45:28;;;;;;;6.43;3.03;;;2.70;88.20;;;;;;5046738;28;20417;-72
2022/03/12 02:47:55;;;;;;;7.88;3.22;;;2.70;88.20;;;;;;5048068;28;20079;-72
2022/03/12 02:50:23;;;;;;;7.22;3.42;;;2.70;88.40;;;;;;5048104;28;20033;-71
2022/03/12 02:52:49;;;;;;;12.40;2.75;;;2.60;88.30;;;;;;5047697;28;20017;-72
2022/03/12 02:55:21;;;;;;;9.35;3.50;;;2.60;88.00;;;;;;5047769;28;20057;-72
2022/03/12 02:57:47;;;;;;;6.38;2.85;;;2.60;88.10;;;;;;5030044;28;20436;-71
2022/03/12 03:00:16;;;;;;;6.25;2.53;;;2.60;88.60;;;;;;5047430;28;20032;-73
2022/03/12 03:02:47;;;;;;;9.40;3.30;;;2.50;88.90;;;;;;5029975;28;20032;-71
2022/03/12 03:05:23;;;;;;;5.82;2.85;;;2.40;88.90;;;;;;5047828;28;20025;-73
2022/03/12 03:07:56;;;;;;;6.00;2.75;;;2.50;89.00;;;;;;5047278;28;20053;-72
2022/03/12 03:10:42;;;;;;;7.82;2.35;;;2.50;88.70;;;;;;5048100;28;20021;-73
2022/03/12 03:13:17;;;;;;;8.45;2.50;;;2.50;88.80;;;;;;5046874;28;20057;-74
2022/03/12 03:15:59;;;;;;;8.32;3.50;;;2.50;88.90;;;;;;5047609;28;20061;-73
2022/03/12 03:18:28;;;;;;;8.75;2.45;;;2.50;89.10;;;;;;5047718;28;20041;-73
2022/03/12 03:20:55;;;;;;;9.70;3.13;;;2.50;89.10;;;;;;5047319;28;20037;-73
2022/03/12 03:23:25;;;;;;;4.97;2.47;;;2.50;88.80;;;;;;5046474;28;20230;-72
2022/03/12 03:25:51;;;;;;;7.30;2.80;;;2.40;88.70;;;;;;5047442;28;20029;-72
2022/03/12 03:28:17;;;;;;;7.78;2.92;;;2.40;88.80;;;;;;5046837;28;20482;-72
2022/03/12 03:30:43;;;;;;;5.18;2.10;;;2.40;88.60;;;;;;5029228;28;20101;-72
2022/03/12 03:33:21;;;;;;;14.07;2.70;;;2.40;88.60;;;;;;5046941;28;20018;-73
2022/03/12 03:35:47;;;;;;;7.10;2.55;;;2.40;89.00;;;;;;5027712;28;20055;-73
2022/03/12 03:38:14;;;;;;;8.80;3.70;;;2.30;88.90;;;;;;5046919;28;20029;-72
2022/03/12 03:40:41;;;;;;;6.22;3.08;;;2.30;89.10;;;;;;5028448;28;20389;-72
2022/03/12 03:43:12;;;;;;;5.60;2.40;;;2.30;89.20;;;;;;5028787;28;20033;-73
2022/03/12 03:45:38;;;;;;;4.07;2.33;;;2.30;88.90;;;;;;5045752;28;20076;-72
2022/03/12 03:48:04;;;;;;;12.23;3.22;;;2.20;88.90;;;;;;5046493;28;20390;-74
2022/03/12 03:50:29;;;;;;;5.25;2.58;;;2.20;89.00;;;;;;5046874;28;20033;-72
2022/03/12 03:52:58;;;;;;;16.42;3.05;;;2.20;88.80;;;;;;5047294;28;20084;-74
2022/03/12 03:55:28;;;;;;;8.85;3.67;;;2.20;89.90;;;;;;5046815;28;20079;-74
2022/03/12 03:57:54;;;;;;;8.38;3.40;;;2.20;88.90;;;;;;5046853;28;20017;-73
2022/03/12 04:00:23;;;;;;;1.98;1.33;;;2.10;89.00;;;;;;5046856;28;20021;-72
2022/03/12 04:03:01;;;;;;;10.38;3.65;;;2.10;88.90;;;;;;5046290;28;20033;-72
2022/03/12 04:05:27;;;;;;;8.82;2.90;;;2.10;89.10;;;;;;5046800;28;20028;-71
2022/03/12 04:07:52;;;;;;;6.45;3.15;;;2.10;88.90;;;;;;5047050;28;20528;-71
2022/03/12 04:10:18;;;;;;;7.20;2.90;;;2.10;89.10;;;;;;5046255;28;20029;-73
2022/03/12 04:12:44;;;;;;;10.68;3.42;;;2.10;89.10;;;;;;5028748;28;20108;-70
2022/03/12 04:15:10;;;;;;;10.43;2.90;;;2.10;89.20;;;;;;5046299;28;20051;-72
2022/03/12 04:17:36;;;;;;;7.65;3.20;;;2.10;89.20;;;;;;5045767;28;20454;-73
2022/03/12 04:20:02;;;;;;;7.05;2.80;;;2.10;89.30;;;;;;5046486;28;20022;-73
2022/03/12 04:22:31;;;;;;;6.15;2.65;;;2.10;89.50;;;;;;5046490;28;20033;-72
2022/03/12 04:24:56;;;;;;;7.35;3.00;;;2.00;89.60;;;;;;5045851;28;20029;-74
2022/03/12 04:27:22;;;;;;;6.32;2.55;;;2.00;89.50;;;;;;5046372;28;20113;-73
2022/03/12 04:29:48;;;;;;;10.43;4.32;;;2.00;89.10;;;;;;5046027;28;20085;-72
2022/03/12 04:32:14;;;;;;;6.05;2.53;;;2.00;89.40;;;;;;5045698;28;20088;-72
2022/03/12 04:34:40;;;;;;;7.80;2.45;;;2.00;89.10;;;;;;5046047;28;20030;-72
2022/03/12 04:37:05;;;;;;;8.55;2.83;;;2.00;88.90;;;;;;5045806;28;20022;-72
2022/03/12 04:39:35;;;;;;;12.35;3.70;;;2.00;89.00;;;;;;5045564;28;20032;-73
2022/03/12 04:42:00;;;;;;;5.70;2.40;;;2.00;88.90;;;;;;5045864;28;20025;-72
2022/03/12 04:44:26;;;;;;;6.55;2.97;;;2.00;89.00;;;;;;5045751;28;20079;-72
2022/03/12 04:46:52;;;;;;;7.25;2.83;;;2.00;89.00;;;;;;5045369;28;20540;-72
2022/03/12 04:49:19;;;;;;;8.27;2.95;;;2.00;89.00;;;;;;5045908;28;20032;-73
2022/03/12 04:51:44;;;;;;;6.38;2.42;;;2.00;89.30;;;;;;5045749;28;20386;-71
2022/03/12 04:54:10;;;;;;;28.20;2.75;;;2.00;88.80;;;;;;5026907;28;20030;-70
2022/03/12 04:56:36;;;;;;;5.80;2.65;;;2.00;88.80;;;;;;5045732;28;20489;-72
2022/03/12 04:59:01;;;;;;;7.30;3.08;;;2.00;89.00;;;;;;5044371;28;20034;-72
2022/03/12 05:01:31;;;;;;;5.28;2.13;;;2.00;88.50;;;;;;5045516;28;20041;-73
2022/03/12 05:03:57;;;;;;;4.75;2.15;;;2.00;88.50;;;;;;5045843;28;20025;-73
2022/03/12 05:06:23;;;;;;;8.70;3.05;;;2.00;88.30;;;;;;5044986;28;20371;-73
2022/03/12 05:08:49;;;;;;;6.15;2.35;;;2.00;88.00;;;;;;5027702;28;20093;-72
2022/03/12 05:11:15;;;;;;;3.83;1.77;;;2.00;88.40;;;;;;5045468;28;20028;-73
2022/03/12 05:13:40;;;;;;;15.02;2.20;;;2.00;88.30;;;;;;5044824;28;20048;-73
2022/03/12 05:16:06;;;;;;;7.05;2.67;;;2.00;88.20;;;;;;5045418;28;20035;-75
2022/03/12 05:18:34;;;;;;;6.78;2.40;;;2.00;88.30;;;;;;5045470;28;20026;-73
2022/03/12 05:21:01;;;;;;;6.32;2.67;;;2.00;88.40;;;;;;5045072;28;20087;-72
2022/03/12 05:23:27;;;;;;;7.68;2.50;;;1.90;88.70;;;;;;5045412;28;20034;-72
2022/03/12 05:25:53;;;;;;;6.63;2.58;;;1.90;88.60;;;;;;5045429;28;20517;-72
2022/03/12 05:28:26;;;;;;;7.72;2.65;;;1.90;88.80;;;;;;5045297;28;20072;-72
2022/03/12 05:30:58;;;;;;;7.50;2.20;;;1.90;88.80;;;;;;5045550;28;20033;-71
2022/03/12 05:33:35;;;;;;;7.05;3.00;;;1.90;88.90;;;;;;5044989;28;20444;-72
2022/03/12 05:36:02;;;;;;;6.20;2.20;;;1.90;88.80;;;;;;5044926;28;20017;-72
2022/03/12 05:38:31;;;;;;;7.40;2.75;;;1.90;88.90;;;;;;5027047;28;20037;-72
2022/03/12 05:40:58;;;;;;;5.57;2.92;;;1.80;89.00;;;;;;5044501;28;20401;-70
2022/03/12 05:43:38;;;;;;;7.10;2.38;;;1.90;89.20;;;;;;5045116;28;20025;-73
2022/03/12 05:46:04;;;;;;;6.13;2.45;;;1.90;89.40;;;;;;5044615;28;20041;-72
2022/03/12 05:48:30;;;;;;;7.97;2.58;;;1.80;89.30;;;;;;5044710;28;20059;-73
2022/03/12 05:50:57;;;;;;;3.47;1.90;;;1.90;89.30;;;;;;5045231;28;20026;-74
2022/03/12 05:53:24;;;;;;;5.25;2.75;;;1.80;89.40;;;;;;5044776;28;20057;-72
2022/03/12 05:55:50;;;;;;;4.63;2.25;;;1.80;89.30;;;;;;5044767;28;20037;-72
2022/03/12 05:58:18;;;;;;;3.83;2.00;;;1.80;89.20;;;;;;5044833;28;20041;-72
2022/03/12 06:00:43;;;;;;;8.60;2.47;;;1.80;89.30;;;;;;5026545;28;20029;-73
2022/03/12 06:03:15;;;;;;;5.60;2.58;;;1.90;89.50;;;;;;5044705;28;20034;-75
2022/03/12 06:05:42;;;;;;;4.80;2.25;;;1.80;89.50;;;;;;5047093;28;20025;-72
2022/03/12 06:08:08;;;;;;;7.40;2.45;;;1.90;89.20;;;;;;5048460;28;20090;-72
2022/03/12 06:10:37;;;;;;;8.23;2.63;;;1.90;89.40;;;;;;5048825;28;20084;-73
2022/03/12 06:13:08;;;;;;;6.05;2.80;;;1.90;89.40;;;;;;5048646;28;20032;-72
2022/03/12 06:15:39;;;;;;;6.18;2.13;;;1.90;89.20;;;;;;5048117;28;20022;-71
2022/03/12 06:18:05;;;;;;;4.97;2.53;;;1.90;89.00;;;;;;5048592;28;20021;-72
2022/03/12 06:20:33;;;;;;;11.15;2.08;;;2.00;88.60;;;;;;5048780;28;20068;-72
2022/03/12 06:22:58;;;;;;;3.75;1.52;;;2.00;88.50;;;;;;5047997;28;20021;-73
2022/03/12 06:25:24;;;;;;;2.85;1.75;;;2.00;88.30;;;;;;5048489;28;20089;-71
2022/03/12 06:27:54;;;;;;;6.38;2.05;;;2.10;88.40;;;;;;5048325;28;20044;-69
2022/03/12 06:30:24;;;;;;;10.18;1.90;;;2.10;88.40;;;;;;5047910;28;20185;-72
2022/03/12 06:32:51;;;;;;;8.88;1.98;;;2.20;88.20;;;;;;5048387;28;20038;-73
2022/03/12 06:35:18;;;;;;;2.50;1.38;;;2.20;87.80;;;;;;5030398;28;20706;-72
2022/03/12 06:37:49;;;;;;;5.75;2.45;;;2.20;87.50;;;;;;5047685;28;20112;-73
2022/03/12 06:40:16;;;;;;;7.07;2.42;;;2.20;87.80;;;;;;5048116;28;20040;-72
2022/03/12 06:42:47;;;;;;;7.38;3.35;;;2.20;88.20;;;;;;5047953;28;20036;-72
2022/03/12 06:45:16;;;;;;;5.55;1.98;;;2.30;87.90;;;;;;5041844;28;20077;-73
2022/03/12 06:47:44;;;;;;;8.45;2.30;;;2.20;88.30;;;;;;5046528;28;20080;-72
2022/03/12 06:50:14;;;;;;;5.00;2.70;;;2.30;88.20;;;;;;5045471;28;20179;-72
2022/03/12 06:52:45;;;;;;;5.85;2.55;;;2.30;88.50;;;;;;5046976;28;20103;-73
2022/03/12 06:55:10;;;;;;;4.75;2.08;;;2.30;88.30;;;;;;5030162;28;20055;-73
2022/03/12 06:57:37;;;;;;;4.53;2.08;;;2.30;88.20;;;;;;5029525;28;20482;-74
2022/03/12 07:00:06;;;;;;;7.97;2.65;;;2.30;88.20;;;;;;5047633;28;20389;-71
2022/03/12 07:02:32;;;;;;;3.45;2.03;;;2.30;88.70;;;;;;5029887;28;20079;-72
2022/03/12 07:04:58;;;;;;;6.40;2.28;;;2.30;88.20;;;;;;5047165;28;20034;-74
2022/03/12 07:07:23;;;;;;;7.30;2.78;;;2.40;88.20;;;;;;5047795;28;20037;-71
2022/03/12 07:09:49;;;;;;;4.82;2.03;;;2.40;87.80;;;;;;5047499;28;20049;-72
2022/03/12 07:12:14;;;;;;;2.90;1.50;;;2.40;88.30;;;;;;5029284;28;20028;-72
2022/03/12 07:14:41;;;;;;;5.15;2.55;;;2.40;88.00;;;;;;5046840;28;20025;-72
2022/03/12 07:17:07;;;;;;;5.75;2.33;;;2.50;88.30;;;;;;5031821;28;20557;-72
2022/03/12 07:19:33;;;;;;;6.07;2.22;;;2.40;88.20;;;;;;5042290;28;20034;-71
2022/03/12 07:21:59;;;;;;;8.35;2.28;;;2.50;88.40;;;;;;5026497;28;20054;-72
2022/03/12 07:24:25;;;;;;;9.65;2.33;;;2.50;88.30;;;;;;5028103;28;20085;-72
2022/03/12 07:26:51;;;;;;;9.43;2.15;;;2.50;88.40;;;;;;5033296;28;20406;-73
2022/03/12 07:29:16;;;;;;;8.27;2.08;;;2.60;87.70;;;;;;5035967;28;20054;-72
2022/03/12 07:31:49;;;;;;;7.47;2.28;;;2.60;87.70;;;;;;5017982;28;20033;-74
2022/03/12 07:34:15;;;;;;;5.80;2.42;;;2.70;87.50;;;;;;5026966;28;20033;-71
2022/03/12 07:36:41;;;;;;;4.93;1.58;;;2.70;87.60;;;;;;5026863;28;20034;-72
2022/03/12 07:39:07;;;;;;;6.47;2.40;;;2.80;87.30;;;;;;5026729;28;20022;-72
2022/03/12 07:41:37;;;;;;;7.85;1.50;;;2.90;87.00;;;;;;5026889;28;20101;-74
2022/03/12 07:44:02;;;;;;;6.95;1.83;;;3.10;87.00;;;;;;5026405;28;20125;-73
2022/03/12 07:46:28;;;;;;;4.63;1.63;;;3.20;86.90;;;;;;5026635;28;20069;-72
2022/03/12 07:48:54;;;;;;;4.53;2.00;;;3.40;86.00;;;;;;5026312;28;20029;-72
2022/03/12 07:51:30;;;;;;;5.18;1.58;;;3.60;86.70;;;;;;5035206;28;20026;-72
2022/03/12 07:53:58;;;;;;;6.28;2.05;;;3.80;85.30;;;;;;5008171;28;20386;-73
2022/03/12 07:56:24;;;;;;;8.80;2.10;;;4.10;84.60;;;;;;5035846;28;20022;-71
2022/03/12 07:58:50;;;;;;;8.05;2.55;;;4.30;84.50;;;;;;5046140;28;20025;-71
2022/03/12 08:01:20;;;;;;;4.68;1.77;;;4.60;84.00;;;;;;5046082;28;20041;-74
2022/03/12 08:03:46;;;;;;;9.77;2.58;;;4.70;83.10;;;;;;5046325;28;20033;-73
2022/03/12 08:06:13;;;;;;;6.20;2.47;;;4.90;83.00;;;;;;5045949;28;20037;-74
2022/03/12 08:08:38;;;;;;;4.60;2.05;;;5.00;81.90;;;;;;5045428;28;20029;-73
2022/03/12 08:13:48;;;;;;;4.25;1.90;;;5.30;82.70;;;;;;5037175;28;20508;-72
2022/03/12 08:16:15;;;;;;;4.32;1.50;;;5.40;81.00;;;;;;5029896;28;20030;-72
2022/03/12 08:18:41;;;;;;;5.60;2.60;;;5.60;81.50;;;;;;5027359;28;20033;-70
2022/03/12 08:21:07;;;;;;;4.88;1.98;;;5.70;81.60;;;;;;5045431;28;20038;-71
2022/03/12 08:23:45;;;;;;;6.90;3.25;;;5.80;80.80;;;;;;5045933;28;20030;-73
2022/03/12 08:26:11;;;;;;;10.93;2.85;;;5.90;80.70;;;;;;5043923;28;20060;-71
2022/03/12 08:28:37;;;;;;;6.90;2.58;;;6.00;80.70;;;;;;5043799;28;20034;-73
2022/03/12 08:31:05;;;;;;;5.65;2.53;;;6.10;80.40;;;;;;5044867;28;20083;-72
2022/03/12 08:33:32;;;;;;;5.57;1.70;;;6.30;79.30;;;;;;5021557;28;20099;-74
2022/03/12 08:36:00;;;;;;;5.68;2.47;;;6.40;79.20;;;;;;5024696;28;20364;-73
2022/03/12 08:38:28;;;;;;;5.85;2.72;;;6.30;79.00;;;;;;5035362;28;20470;-72
2022/03/12 08:40:54;;;;;;;5.55;2.53;;;6.40;79.60;;;;;;5025581;28;20042;-72
2022/03/12 08:43:21;;;;;;;6.72;2.13;;;6.60;79.80;;;;;;5025515;28;20052;-72
2022/03/12 08:45:48;;;;;;;7.78;2.60;;;6.80;79.40;;;;;;5023736;28;20046;-71
2022/03/12 08:48:15;;;;;;;7.80;2.90;;;6.90;79.30;;;;;;5025349;28;20038;-71
2022/03/12 08:50:42;;;;;;;7.75;2.85;;;7.00;80.80;;;;;;5024857;28;20037;-71
2022/03/12 08:53:08;;;;;;;7.25;2.45;;;7.20;79.60;;;;;;5025410;28;20026;-71
2022/03/12 08:55:35;;;;;;;2.90;1.40;;;7.20;77.70;;;;;;5025020;28;20057;-73
2022/03/12 08:58:08;;;;;;;10.70;2.25;;;7.10;76.50;;;;;;5025622;28;20034;-72
2022/03/12 09:00:34;;;;;;;9.07;2.80;;;7.00;77.50;;;;;;5035312;28;20116;-71
2022/03/12 09:03:00;;;;;;;2.95;1.60;;;7.00;78.00;;;;;;5025201;28;20464;-73
2022/03/12 09:05:26;;;;;;;6.70;1.85;;;7.10;78.10;;;;;;5025871;28;20478;-74
2022/03/12 09:07:52;;;;;;;4.35;1.75;;;7.20;78.90;;;;;;5025355;28;20042;-71
2022/03/12 09:10:20;;;;;;;3.55;2.00;;;7.30;77.50;;;;;;5025226;28;20026;-72
2022/03/12 09:12:46;;;;;;;7.32;2.45;;;7.40;78.40;;;;;;5035271;28;20029;-72
2022/03/12 09:15:13;;;;;;;8.80;2.92;;;7.50;79.20;;;;;;5027045;28;20045;-71
2022/03/12 09:17:39;;;;;;;3.65;1.52;;;7.70;79.50;;;;;;5045132;28;20101;-72
2022/03/12 09:20:07;;;;;;;7.10;2.83;;;7.80;78.60;;;;;;5045070;28;20033;-71
2022/03/12 09:22:34;;;;;;;4.70;1.77;;;7.90;78.30;;;;;;5041574;28;20064;-72
2022/03/12 09:25:02;;;;;;;6.03;2.85;;;8.00;77.90;;;;;;5019885;28;20026;-71
2022/03/12 09:27:29;;;;;;;3.80;2.03;;;8.10;78.70;;;;;;5042745;28;20083;-73
2022/03/12 09:29:55;;;;;;;6.00;2.05;;;8.30;79.60;;;;;;5042837;28;20037;-72
2022/03/12 09:32:20;;;;;;;9.65;2.70;;;8.60;80.10;;;;;;5043344;28;20171;-71
2022/03/12 09:34:50;;;;;;;4.57;2.63;;;8.80;78.60;;;;;;5044424;28;20541;-73
2022/03/12 09:37:16;;;;;;;5.30;2.22;;;8.90;77.10;;;;;;5044534;28;20054;-72
2022/03/12 09:39:42;;;;;;;5.05;2.55;;;9.10;78.20;;;;;;5044494;28;20026;-73
2022/03/12 09:42:08;;;;;;;5.07;2.50;;;9.20;78.50;;;;;;5044335;28;20037;-72
2022/03/12 09:44:34;;;;;;;7.72;2.45;;;9.10;76.00;;;;;;5043532;28;20116;-72
2022/03/12 09:46:59;;;;;;;6.18;2.45;;;9.10;77.30;;;;;;5041010;28;20061;-71
2022/03/12 09:49:28;;;;;;;5.00;2.55;;;9.20;77.80;;;;;;5041204;28;20029;-70
2022/03/12 09:51:57;;;;;;;8.80;2.72;;;9.40;78.80;;;;;;5041138;28;20112;-73
2022/03/12 09:54:24;;;;;;;6.72;2.42;;;9.70;77.10;;;;;;5041265;28;20639;-72
2022/03/12 09:56:54;;;;;;;5.15;2.72;;;9.80;77.60;;;;;;5041797;28;20484;-72
2022/03/12 09:59:20;;;;;;;9.02;3.22;;;9.90;77.50;;;;;;5041806;28;20022;-71
2022/03/12 10:01:45;;;;;;;10.35;3.13;;;10.00;77.60;;;;;;5042322;28;20039;-71
2022/03/12 10:04:11;;;;;;;5.85;2.75;;;10.20;77.50;;;;;;5023887;28;20029;-72
2022/03/12 10:06:44;;;;;;;7.50;3.20;;;10.40;77.30;;;;;;5042292;28;20029;-71
2022/03/12 10:09:10;;;;;;;3.85;1.88;;;10.50;77.40;;;;;;5024211;28;20021;-73
2022/03/12 10:11:35;;;;;;;3.70;2.28;;;10.50;76.20;;;;;;5023853;28;20091;-72
2022/03/12 10:14:02;;;;;;;20.95;3.00;;;10.30;75.90;;;;;;5042566;28;20064;-74
2022/03/12 10:16:32;;;;;;;7.43;3.10;;;10.30;76.10;;;;;;5041895;28;20080;-74
2022/03/12 10:19:19;;;;;;;9.80;3.17;;;10.40;78.20;;;;;;5042267;28;20025;-71
2022/03/12 10:21:47;;;;;;;5.55;2.47;;;10.60;76.30;;;;;;5033327;28;20029;-71
2022/03/12 10:24:14;;;;;;;8.30;3.22;;;10.70;76.10;;;;;;5005474;28;20053;-71
2022/03/12 10:26:42;;;;;;;3.88;2.25;;;10.80;76.60;;;;;;5021666;28;20026;-71
2022/03/12 10:29:33;;;;;;;9.02;2.63;;;10.90;76.70;;;;;;5022869;28;20033;-70
2022/03/12 10:32:28;;;;;;;5.05;2.47;;;11.10;76.40;;;;;;5041360;28;20021;-72
2022/03/12 10:34:59;;;;;;;4.22;2.45;;;11.20;75.60;;;;;;5040486;28;20022;-72
2022/03/12 10:37:28;;;;;;;5.93;2.58;;;11.30;76.50;;;;;;5041908;28;20070;-71
2022/03/12 10:40:24;;;;;;;5.45;2.50;;;11.40;76.40;;;;;;5042470;28;20026;-71
2022/03/12 10:43:05;;;;;;;9.60;2.72;;;11.40;75.20;;;;;;5040980;28;20555;-71
2022/03/12 10:45:51;;;;;;;10.48;2.90;;;11.50;75.40;;;;;;5041017;28;20708;-71
2022/03/12 10:48:29;;;;;;;5.28;2.80;;;11.50;76.20;;;;;;5041941;28;20907;-72
2022/03/12 10:50:55;;;;;;;6.88;2.75;;;11.50;75.80;;;;;;5042714;28;20077;-74
2022/03/12 10:53:22;;;;;;;7.53;2.30;;;11.60;76.20;;;;;;5045747;28;20025;-70
2022/03/12 10:55:50;;;;;;;6.20;2.92;;;11.70;75.80;;;;;;5046003;28;20029;-73
2022/03/12 10:58:28;;;;;;;7.85;3.05;;;11.80;76.20;;;;;;5045769;28;20393;-70
2022/03/12 11:00:56;;;;;;;6.55;3.22;;;12.10;77.00;;;;;;5045730;28;20026;-72
2022/03/12 11:03:33;;;;;;;8.57;3.10;;;12.50;76.70;;;;;;5045866;28;20033;-73
2022/03/12 11:06:00;;;;;;;6.25;3.08;;;12.70;76.40;;;;;;5045453;28;20060;-71
2022/03/12 11:08:36;;;;;;;8.07;2.90;;;13.00;75.50;;;;;;5045301;28;20056;-71
2022/03/12 11:11:14;;;;;;;5.53;2.60;;;13.10;75.60;;;;;;5045560;28;20026;-70
2022/03/12 11:13:44;;;;;;;4.93;2.70;;;13.20;75.40;;;;;;5045221;28;20029;-72
2022/03/12 11:16:29;;;;;;;4.85;2.45;;;13.30;75.80;;;;;;5044940;28;20167;-70
2022/03/12 11:18:55;;;;;;;7.55;3.03;;;13.20;74.50;;;;;;5042457;28;20029;-71
2022/03/12 11:21:42;;;;;;;6.38;2.40;;;13.20;75.40;;;;;;5044867;28;20030;-72
2022/03/12 11:27:38;;;;;;;6.68;3.30;;;13.40;74.80;;;;;;5009412;28;20128;-71
2022/03/12 11:30:09;;;;;;;5.05;2.28;;;13.70;75.30;;;;;;5045102;28;20064;-72
2022/03/12 11:32:45;;;;;;;6.30;2.83;;;13.90;75.50;;;;;;5045287;28;20029;-71
2022/03/12 11:35:15;;;;;;;7.88;2.90;;;14.20;76.00;;;;;;5045167;28;20030;-73
2022/03/12 11:37:42;;;;;;;6.53;3.10;;;14.40;75.00;;;;;;5044549;28;20355;-72
2022/03/12 11:40:13;;;;;;;8.27;3.42;;;14.50;75.50;;;;;;5044891;28;20026;-71
2022/03/12 11:42:43;;;;;;;5.80;2.65;;;14.70;75.70;;;;;;5044739;28;20013;-71
2022/03/12 11:45:14;;;;;;;5.88;2.72;;;14.90;74.70;;;;;;5044103;28;20045;-71
2022/03/12 11:47:43;;;;;;;5.22;2.85;;;14.90;73.40;;;;;;5043965;28;20496;-73
2022/03/12 11:50:15;;;;;;;8.77;3.30;;;15.10;75.00;;;;;;5044548;28;20022;-73
2022/03/12 11:52:42;;;;;;;14.40;3.58;;;15.30;75.60;;;;;;5044040;28;20060;-73
2022/03/12 11:55:21;;;;;;;5.63;2.78;;;15.40;74.60;;;;;;5044026;28;20034;-72
2022/03/12 11:57:48;;;;;;;16.00;3.10;;;15.60;75.60;;;;;;5041440;28;20029;-72
2022/03/12 12:00:25;;;;;;;4.90;2.72;;;15.70;74.90;;;;;;5029986;28;20033;-72
2022/03/12 12:02:54;;;;;;;5.55;2.72;;;16.10;73.90;;;;;;5043829;28;20041;-74
2022/03/12 12:05:22;;;;;;;14.23;3.35;;;16.20;73.50;;;;;;5044405;28;20034;-72
2022/03/12 12:07:51;;;;;;;7.68;3.35;;;16.30;73.80;;;;;;5032172;28;20045;-72
2022/03/12 12:10:25;;;;;;;9.50;2.95;;;16.40;73.20;;;;;;5024831;28;20038;-72
2022/03/12 12:12:51;;;;;;;7.95;3.03;;;16.50;73.40;;;;;;5024469;28;20042;-74
2022/03/12 12:15:24;;;;;;;9.88;3.25;;;16.80;72.90;;;;;;5034313;28;20030;-72
2022/03/12 12:17:51;;;;;;;5.93;3.22;;;16.80;73.40;;;;;;5025850;28;20022;-71
2022/03/12 12:20:19;;;;;;;6.97;3.30;;;16.80;74.40;;;;;;5044393;28;20084;-71
2022/03/12 12:22:45;;;;;;;10.10;4.18;;;16.80;74.10;;;;;;5043877;28;20032;-70
2022/03/12 12:25:12;;;;;;;9.77;2.95;;;16.80;73.80;;;;;;5044282;28;20026;-71
2022/03/12 12:27:42;;;;;;;11.98;2.92;;;16.90;73.30;;;;;;5043162;28;20041;-71
2022/03/12 12:30:09;;;;;;;5.93;3.08;;;16.90;73.80;;;;;;5025883;28;20049;-70
2022/03/12 12:32:45;;;;;;;11.55;3.03;;;17.10;73.80;;;;;;5043988;28;20021;-71
2022/03/12 12:35:27;;;;;;;7.88;3.70;;;17.30;73.90;;;;;;5043952;28;20514;-72
2022/03/12 12:37:58;;;;;;;6.55;3.17;;;17.20;71.90;;;;;;5043731;28;20029;-72
2022/03/12 12:40:48;;;;;;;6.90;3.28;;;17.30;73.40;;;;;;5044088;28;20096;-72
2022/03/12 12:43:18;;;;;;;12.30;3.50;;;17.50;72.90;;;;;;5025248;28;20029;-71
2022/03/12 12:45:53;;;;;;;7.53;3.13;;;17.70;74.30;;;;;;5042686;28;20045;-73
2022/03/12 12:48:34;;;;;;;11.73;3.00;;;17.90;72.60;;;;;;5043701;28;20042;-72
2022/03/12 12:51:21;;;;;;;6.97;3.38;;;17.90;71.70;;;;;;5043467;28;20029;-72
2022/03/12 12:53:48;;;;;;;9.43;2.90;;;17.80;70.80;;;;;;5042458;28;20029;-71
2022/03/12 12:56:21;;;;;;;6.95;3.22;;;17.60;72.20;;;;;;5006892;28;20053;-73
2022/03/12 12:58:56;;;;;;;8.55;3.40;;;17.50;72.10;;;;;;5021788;28;20232;-72
2022/03/12 13:01:27;;;;;;;8.15;2.90;;;17.40;72.00;;;;;;5025568;28;20048;-71
2022/03/12 13:03:54;;;;;;;10.00;2.90;;;17.50;73.30;;;;;;5043073;28;20816;-71
2022/03/12 13:06:47;;;;;;;6.57;3.25;;;17.70;73.40;;;;;;5042717;28;20614;-73